sensor_id;sensor_type;location;lat;lon;timestamp;P1;durP1;ratioP1;P2;durP2;ratioP2
50417;SDS011;36346;48.280;14.292;2022-07-05T00:01:49;5.08;;;5.08;;
50417;SDS011;36346;48.280;14.292;2022-07-05T00:04:17;5.26;;;5.26;;
50417;SDS011;36346;48.280;14.292;2022-07-05T00:06:46;5.07;;;5.07;;
50417;SDS011;36346;48.280;14.292;2022-07-05T00:09:32;5.19;;;5.19;;
50417;SDS011;36346;48.280;14.292;2022-07-05T00:12:00;4.82;;;4.82;;
50417;SDS011;36346;48.280;14.292;2022-07-05T00:14:29;4.56;;;4.56;;
50417;SDS011;36346;48.280;14.292;2022-07-05T00:16:57;4.77;;;4.77;;
50417;SDS011;36346;48.280;14.292;2022-07-05T00:19:26;4.63;;;4.63;;
50417;SDS011;36346;48.280;14.292;2022-07-05T00:21:54;4.78;;;4.78;;
50417;SDS011;36346;48.280;14.292;2022-07-05T00:24:22;4.79;;;4.79;;
50417;SDS011;36346;48.280;14.292;2022-07-05T00:26:50;4.82;;;4.82;;
50417;SDS011;36346;48.280;14.292;2022-07-05T00:29:18;5.23;;;5.23;;
50417;SDS011;36346;48.280;14.292;2022-07-05T00:31:46;5.48;;;5.48;;
50417;SDS011;36346;48.280;14.292;2022-07-05T00:34:15;5.23;;;5.23;;
50417;SDS011;36346;48.280;14.292;2022-07-05T00:36:43;5.47;;;5.47;;
50417;SDS011;36346;48.280;14.292;2022-07-05T00:39:11;5.21;;;5.21;;
50417;SDS011;36346;48.280;14.292;2022-07-05T00:41:39;5.17;;;5.17;;
50417;SDS011;36346;48.280;14.292;2022-07-05T00:44:09;5.11;;;5.11;;
50417;SDS011;36346;48.280;14.292;2022-07-05T00:46:38;4.94;;;4.94;;
50417;SDS011;36346;48.280;14.292;2022-07-05T00:49:07;4.62;;;4.62;;
50417;SDS011;36346;48.280;14.292;2022-07-05T00:51:36;4.43;;;4.43;;
50417;SDS011;36346;48.280;14.292;2022-07-05T00:54:26;4.15;;;4.15;;
50417;SDS011;36346;48.280;14.292;2022-07-05T00:56:55;4.18;;;4.18;;
50417;SDS011;36346;48.280;14.292;2022-07-05T00:59:26;4.34;;;4.34;;
50417;SDS011;36346;48.280;14.292;2022-07-05T01:01:55;4.17;;;4.17;;
50417;SDS011;36346;48.280;14.292;2022-07-05T01:04:25;4.09;;;4.09;;
50417;SDS011;36346;48.280;14.292;2022-07-05T01:06:54;4.28;;;4.28;;
50417;SDS011;36346;48.280;14.292;2022-07-05T01:09:23;3.75;;;3.75;;
50417;SDS011;36346;48.280;14.292;2022-07-05T01:11:51;3.62;;;3.62;;
50417;SDS011;36346;48.280;14.292;2022-07-05T01:14:20;3.96;;;3.96;;
50417;SDS011;36346;48.280;14.292;2022-07-05T01:16:52;3.85;;;3.85;;
50417;SDS011;36346;48.280;14.292;2022-07-05T01:19:22;3.36;;;3.36;;
50417;SDS011;36346;48.280;14.292;2022-07-05T01:21:52;3.49;;;3.49;;
50417;SDS011;36346;48.280;14.292;2022-07-05T01:24:20;3.19;;;3.19;;
50417;SDS011;36346;48.280;14.292;2022-07-05T01:26:49;2.83;;;2.83;;
50417;SDS011;36346;48.280;14.292;2022-07-05T01:29:18;2.94;;;2.94;;
50417;SDS011;36346;48.280;14.292;2022-07-05T01:31:46;3.07;;;3.07;;
50417;SDS011;36346;48.280;14.292;2022-07-05T01:34:15;3.03;;;3.03;;
50417;SDS011;36346;48.280;14.292;2022-07-05T01:36:43;2.83;;;2.83;;
50417;SDS011;36346;48.280;14.292;2022-07-05T01:39:11;2.37;;;2.37;;
50417;SDS011;36346;48.280;14.292;2022-07-05T01:41:40;2.28;;;2.28;;
50417;SDS011;36346;48.280;14.292;2022-07-05T01:44:08;2.14;;;2.14;;
50417;SDS011;36346;48.280;14.292;2022-07-05T01:46:36;1.74;;;1.74;;
50417;SDS011;36346;48.280;14.292;2022-07-05T01:49:09;1.83;;;1.83;;
50417;SDS011;36346;48.280;14.292;2022-07-05T01:52:01;1.90;;;1.90;;
50417;SDS011;36346;48.280;14.292;2022-07-05T01:54:34;1.64;;;1.64;;
50417;SDS011;36346;48.280;14.292;2022-07-05T01:57:03;1.73;;;1.73;;
50417;SDS011;36346;48.280;14.292;2022-07-05T01:59:36;1.55;;;1.55;;
50417;SDS011;36346;48.280;14.292;2022-07-05T02:02:06;1.54;;;1.54;;
50417;SDS011;36346;48.280;14.292;2022-07-05T02:04:36;1.46;;;1.46;;
50417;SDS011;36346;48.280;14.292;2022-07-05T02:07:09;1.64;;;1.64;;
50417;SDS011;36346;48.280;14.292;2022-07-05T02:09:39;1.61;;;1.61;;
50417;SDS011;36346;48.280;14.292;2022-07-05T02:12:08;1.50;;;1.50;;
50417;SDS011;36346;48.280;14.292;2022-07-05T02:14:36;1.60;;;1.60;;
50417;SDS011;36346;48.280;14.292;2022-07-05T02:17:09;1.53;;;1.53;;
50417;SDS011;36346;48.280;14.292;2022-07-05T02:19:38;1.61;;;1.61;;
50417;SDS011;36346;48.280;14.292;2022-07-05T02:22:08;1.73;;;1.73;;
50417;SDS011;36346;48.280;14.292;2022-07-05T02:24:38;1.86;;;1.86;;
50417;SDS011;36346;48.280;14.292;2022-07-05T02:27:18;1.91;;;1.91;;
50417;SDS011;36346;48.280;14.292;2022-07-05T02:29:47;1.85;;;1.85;;
50417;SDS011;36346;48.280;14.292;2022-07-05T02:32:18;2.01;;;2.01;;
50417;SDS011;36346;48.280;14.292;2022-07-05T02:34:46;1.94;;;1.94;;
50417;SDS011;36346;48.280;14.292;2022-07-05T02:37:15;2.21;;;2.21;;
50417;SDS011;36346;48.280;14.292;2022-07-05T02:39:44;2.08;;;2.08;;
50417;SDS011;36346;48.280;14.292;2022-07-05T02:42:12;2.03;;;2.03;;
50417;SDS011;36346;48.280;14.292;2022-07-05T02:44:41;2.18;;;2.18;;
50417;SDS011;36346;48.280;14.292;2022-07-05T02:47:09;2.25;;;2.25;;
50417;SDS011;36346;48.280;14.292;2022-07-05T02:49:38;2.16;;;2.16;;
50417;SDS011;36346;48.280;14.292;2022-07-05T02:52:08;2.16;;;2.16;;
50417;SDS011;36346;48.280;14.292;2022-07-05T02:54:36;2.10;;;2.10;;
50417;SDS011;36346;48.280;14.292;2022-07-05T02:57:08;2.06;;;2.06;;
50417;SDS011;36346;48.280;14.292;2022-07-05T02:59:36;2.05;;;2.05;;
50417;SDS011;36346;48.280;14.292;2022-07-05T03:02:05;2.20;;;2.20;;
50417;SDS011;36346;48.280;14.292;2022-07-05T03:04:35;2.04;;;2.04;;
50417;SDS011;36346;48.280;14.292;2022-07-05T03:07:03;2.20;;;2.20;;
50417;SDS011;36346;48.280;14.292;2022-07-05T03:09:31;2.41;;;2.41;;
50417;SDS011;36346;48.280;14.292;2022-07-05T03:12:02;2.20;;;2.20;;
50417;SDS011;36346;48.280;14.292;2022-07-05T03:14:31;2.42;;;2.42;;
50417;SDS011;36346;48.280;14.292;2022-07-05T03:17:00;2.34;;;2.34;;
50417;SDS011;36346;48.280;14.292;2022-07-05T03:19:29;2.17;;;2.17;;
50417;SDS011;36346;48.280;14.292;2022-07-05T03:21:57;1.96;;;1.96;;
50417;SDS011;36346;48.280;14.292;2022-07-05T03:24:26;2.19;;;2.19;;
50417;SDS011;36346;48.280;14.292;2022-07-05T03:26:54;2.51;;;2.51;;
50417;SDS011;36346;48.280;14.292;2022-07-05T03:29:23;2.62;;;2.62;;
50417;SDS011;36346;48.280;14.292;2022-07-05T03:31:52;2.05;;;2.05;;
50417;SDS011;36346;48.280;14.292;2022-07-05T03:34:24;1.90;;;1.90;;
50417;SDS011;36346;48.280;14.292;2022-07-05T03:36:53;5.25;;;5.25;;
50417;SDS011;36346;48.280;14.292;2022-07-05T03:39:21;3.43;;;3.43;;
50417;SDS011;36346;48.280;14.292;2022-07-05T03:41:49;2.39;;;2.39;;
50417;SDS011;36346;48.280;14.292;2022-07-05T03:44:21;2.15;;;2.15;;
50417;SDS011;36346;48.280;14.292;2022-07-05T03:46:49;2.08;;;2.08;;
50417;SDS011;36346;48.280;14.292;2022-07-05T03:49:19;2.19;;;2.19;;
50417;SDS011;36346;48.280;14.292;2022-07-05T03:51:49;2.29;;;2.29;;
50417;SDS011;36346;48.280;14.292;2022-07-05T03:54:17;2.29;;;2.29;;
50417;SDS011;36346;48.280;14.292;2022-07-05T03:56:46;2.49;;;2.49;;
50417;SDS011;36346;48.280;14.292;2022-07-05T03:59:15;2.31;;;2.31;;
50417;SDS011;36346;48.280;14.292;2022-07-05T04:01:44;2.30;;;2.30;;
50417;SDS011;36346;48.280;14.292;2022-07-05T04:04:14;2.47;;;2.47;;
50417;SDS011;36346;48.280;14.292;2022-07-05T04:06:42;2.63;;;2.63;;
50417;SDS011;36346;48.280;14.292;2022-07-05T04:09:11;2.74;;;2.74;;
50417;SDS011;36346;48.280;14.292;2022-07-05T04:11:40;2.54;;;2.54;;
50417;SDS011;36346;48.280;14.292;2022-07-05T04:14:08;2.69;;;2.69;;
50417;SDS011;36346;48.280;14.292;2022-07-05T04:16:38;2.67;;;2.67;;
50417;SDS011;36346;48.280;14.292;2022-07-05T04:19:06;2.50;;;2.50;;
50417;SDS011;36346;48.280;14.292;2022-07-05T04:21:37;2.62;;;2.62;;
50417;SDS011;36346;48.280;14.292;2022-07-05T04:24:05;3.08;;;3.08;;
50417;SDS011;36346;48.280;14.292;2022-07-05T04:26:34;3.02;;;3.02;;
50417;SDS011;36346;48.280;14.292;2022-07-05T04:29:03;3.25;;;3.25;;
50417;SDS011;36346;48.280;14.292;2022-07-05T04:31:35;3.14;;;3.14;;
50417;SDS011;36346;48.280;14.292;2022-07-05T04:34:03;2.85;;;2.85;;
50417;SDS011;36346;48.280;14.292;2022-07-05T04:36:34;3.17;;;3.17;;
50417;SDS011;36346;48.280;14.292;2022-07-05T04:39:04;3.04;;;3.04;;
50417;SDS011;36346;48.280;14.292;2022-07-05T04:41:34;2.98;;;2.98;;
50417;SDS011;36346;48.280;14.292;2022-07-05T04:44:05;2.88;;;2.88;;
50417;SDS011;36346;48.280;14.292;2022-07-05T04:46:33;3.12;;;3.12;;
50417;SDS011;36346;48.280;14.292;2022-07-05T04:49:02;2.90;;;2.90;;
50417;SDS011;36346;48.280;14.292;2022-07-05T04:51:30;3.15;;;3.15;;
50417;SDS011;36346;48.280;14.292;2022-07-05T04:53:59;3.24;;;3.24;;
50417;SDS011;36346;48.280;14.292;2022-07-05T04:56:27;3.51;;;3.51;;
50417;SDS011;36346;48.280;14.292;2022-07-05T04:58:55;4.09;;;4.09;;
50417;SDS011;36346;48.280;14.292;2022-07-05T05:01:23;3.87;;;3.87;;
50417;SDS011;36346;48.280;14.292;2022-07-05T05:03:52;3.20;;;3.20;;
50417;SDS011;36346;48.280;14.292;2022-07-05T05:06:20;3.48;;;3.48;;
50417;SDS011;36346;48.280;14.292;2022-07-05T05:08:48;3.41;;;3.41;;
50417;SDS011;36346;48.280;14.292;2022-07-05T05:11:16;3.31;;;3.31;;
50417;SDS011;36346;48.280;14.292;2022-07-05T05:13:44;3.39;;;3.39;;
50417;SDS011;36346;48.280;14.292;2022-07-05T05:16:14;3.94;;;3.94;;
50417;SDS011;36346;48.280;14.292;2022-07-05T05:18:42;4.44;;;4.44;;
50417;SDS011;36346;48.280;14.292;2022-07-05T05:21:10;4.06;;;4.06;;
50417;SDS011;36346;48.280;14.292;2022-07-05T05:23:38;4.16;;;4.16;;
50417;SDS011;36346;48.280;14.292;2022-07-05T05:26:06;4.32;;;4.32;;
50417;SDS011;36346;48.280;14.292;2022-07-05T05:28:35;4.13;;;4.13;;
50417;SDS011;36346;48.280;14.292;2022-07-05T05:31:03;3.77;;;3.77;;
50417;SDS011;36346;48.280;14.292;2022-07-05T05:33:31;3.93;;;3.93;;
50417;SDS011;36346;48.280;14.292;2022-07-05T05:36:00;3.93;;;3.93;;
50417;SDS011;36346;48.280;14.292;2022-07-05T05:38:28;3.84;;;3.84;;
50417;SDS011;36346;48.280;14.292;2022-07-05T05:40:57;3.57;;;3.57;;
50417;SDS011;36346;48.280;14.292;2022-07-05T05:43:25;4.10;;;4.10;;
50417;SDS011;36346;48.280;14.292;2022-07-05T05:45:53;3.74;;;3.74;;
50417;SDS011;36346;48.280;14.292;2022-07-05T05:48:21;4.18;;;4.18;;
50417;SDS011;36346;48.280;14.292;2022-07-05T05:50:50;4.15;;;4.15;;
50417;SDS011;36346;48.280;14.292;2022-07-05T05:53:19;4.01;;;4.01;;
50417;SDS011;36346;48.280;14.292;2022-07-05T05:55:47;3.85;;;3.85;;
50417;SDS011;36346;48.280;14.292;2022-07-05T05:58:19;3.55;;;3.55;;
50417;SDS011;36346;48.280;14.292;2022-07-05T06:00:51;3.75;;;3.75;;
50417;SDS011;36346;48.280;14.292;2022-07-05T06:03:20;3.84;;;3.84;;
50417;SDS011;36346;48.280;14.292;2022-07-05T06:05:50;3.93;;;3.93;;
50417;SDS011;36346;48.280;14.292;2022-07-05T06:08:18;4.23;;;4.23;;
50417;SDS011;36346;48.280;14.292;2022-07-05T06:10:47;4.88;;;4.88;;
50417;SDS011;36346;48.280;14.292;2022-07-05T06:13:26;4.13;;;4.13;;
50417;SDS011;36346;48.280;14.292;2022-07-05T06:15:55;3.62;;;3.62;;
50417;SDS011;36346;48.280;14.292;2022-07-05T06:18:24;3.81;;;3.81;;
50417;SDS011;36346;48.280;14.292;2022-07-05T06:20:52;4.01;;;4.01;;
50417;SDS011;36346;48.280;14.292;2022-07-05T06:23:20;5.41;;;5.41;;
50417;SDS011;36346;48.280;14.292;2022-07-05T06:25:48;4.59;;;4.59;;
50417;SDS011;36346;48.280;14.292;2022-07-05T06:28:16;3.72;;;3.72;;
50417;SDS011;36346;48.280;14.292;2022-07-05T06:30:44;4.39;;;4.39;;
50417;SDS011;36346;48.280;14.292;2022-07-05T06:33:13;4.42;;;4.42;;
50417;SDS011;36346;48.280;14.292;2022-07-05T06:35:41;5.35;;;5.35;;
50417;SDS011;36346;48.280;14.292;2022-07-05T06:38:09;4.53;;;4.53;;
50417;SDS011;36346;48.280;14.292;2022-07-05T06:40:39;4.27;;;4.27;;
50417;SDS011;36346;48.280;14.292;2022-07-05T06:43:12;4.54;;;4.54;;
50417;SDS011;36346;48.280;14.292;2022-07-05T06:45:54;4.51;;;4.51;;
50417;SDS011;36346;48.280;14.292;2022-07-05T06:48:23;4.54;;;4.54;;
50417;SDS011;36346;48.280;14.292;2022-07-05T06:50:51;4.50;;;4.50;;
50417;SDS011;36346;48.280;14.292;2022-07-05T06:53:19;4.02;;;4.02;;
50417;SDS011;36346;48.280;14.292;2022-07-05T06:55:47;4.39;;;4.39;;
50417;SDS011;36346;48.280;14.292;2022-07-05T06:58:23;3.90;;;3.90;;
50417;SDS011;36346;48.280;14.292;2022-07-05T07:00:52;4.36;;;4.36;;
50417;SDS011;36346;48.280;14.292;2022-07-05T07:03:40;4.21;;;4.21;;
50417;SDS011;36346;48.280;14.292;2022-07-05T07:06:28;4.60;;;4.60;;
50417;SDS011;36346;48.280;14.292;2022-07-05T07:08:57;4.46;;;4.46;;
50417;SDS011;36346;48.280;14.292;2022-07-05T07:11:44;4.26;;;4.26;;
50417;SDS011;36346;48.280;14.292;2022-07-05T07:14:13;4.45;;;4.45;;
50417;SDS011;36346;48.280;14.292;2022-07-05T07:16:43;5.38;;;5.38;;
50417;SDS011;36346;48.280;14.292;2022-07-05T07:19:11;4.44;;;4.44;;
50417;SDS011;36346;48.280;14.292;2022-07-05T07:21:41;4.73;;;4.73;;
50417;SDS011;36346;48.280;14.292;2022-07-05T07:24:11;4.42;;;4.42;;
50417;SDS011;36346;48.280;14.292;2022-07-05T07:26:39;5.05;;;5.05;;
50417;SDS011;36346;48.280;14.292;2022-07-05T07:29:28;4.59;;;4.59;;
50417;SDS011;36346;48.280;14.292;2022-07-05T07:32:00;4.63;;;4.63;;
50417;SDS011;36346;48.280;14.292;2022-07-05T07:34:28;4.69;;;4.69;;
50417;SDS011;36346;48.280;14.292;2022-07-05T07:36:57;4.93;;;4.93;;
50417;SDS011;36346;48.280;14.292;2022-07-05T07:39:26;5.40;;;5.40;;
50417;SDS011;36346;48.280;14.292;2022-07-05T07:41:53;4.79;;;4.79;;
50417;SDS011;36346;48.280;14.292;2022-07-05T07:44:22;4.99;;;4.99;;
50417;SDS011;36346;48.280;14.292;2022-07-05T07:46:50;4.98;;;4.98;;
50417;SDS011;36346;48.280;14.292;2022-07-05T07:49:19;4.81;;;4.81;;
50417;SDS011;36346;48.280;14.292;2022-07-05T07:51:47;5.05;;;5.05;;
50417;SDS011;36346;48.280;14.292;2022-07-05T07:54:15;4.81;;;4.81;;
50417;SDS011;36346;48.280;14.292;2022-07-05T07:56:44;4.77;;;4.77;;
50417;SDS011;36346;48.280;14.292;2022-07-05T07:59:12;4.96;;;4.96;;
50417;SDS011;36346;48.280;14.292;2022-07-05T08:01:40;4.78;;;4.78;;
50417;SDS011;36346;48.280;14.292;2022-07-05T08:04:12;4.56;;;4.56;;
50417;SDS011;36346;48.280;14.292;2022-07-05T08:06:42;4.81;;;4.81;;
50417;SDS011;36346;48.280;14.292;2022-07-05T08:09:11;4.80;;;4.80;;
50417;SDS011;36346;48.280;14.292;2022-07-05T08:11:44;4.79;;;4.79;;
50417;SDS011;36346;48.280;14.292;2022-07-05T08:14:15;4.75;;;4.75;;
50417;SDS011;36346;48.280;14.292;2022-07-05T08:16:45;5.00;;;5.00;;
50417;SDS011;36346;48.280;14.292;2022-07-05T08:19:19;4.94;;;4.94;;
50417;SDS011;36346;48.280;14.292;2022-07-05T08:22:06;4.93;;;4.93;;
50417;SDS011;36346;48.280;14.292;2022-07-05T08:24:38;5.00;;;5.00;;
50417;SDS011;36346;48.280;14.292;2022-07-05T08:27:08;4.85;;;4.85;;
50417;SDS011;36346;48.280;14.292;2022-07-05T08:29:36;5.26;;;5.26;;
50417;SDS011;36346;48.280;14.292;2022-07-05T08:32:05;5.64;;;5.64;;
50417;SDS011;36346;48.280;14.292;2022-07-05T08:34:34;5.53;;;5.53;;
50417;SDS011;36346;48.280;14.292;2022-07-05T08:37:03;5.50;;;5.50;;
50417;SDS011;36346;48.280;14.292;2022-07-05T08:39:41;5.43;;;5.43;;
50417;SDS011;36346;48.280;14.292;2022-07-05T08:42:10;5.79;;;5.79;;
50417;SDS011;36346;48.280;14.292;2022-07-05T08:44:41;6.05;;;6.05;;
50417;SDS011;36346;48.280;14.292;2022-07-05T08:47:12;6.13;;;6.13;;
50417;SDS011;36346;48.280;14.292;2022-07-05T08:49:42;5.43;;;5.43;;
50417;SDS011;36346;48.280;14.292;2022-07-05T08:52:12;5.25;;;5.25;;
50417;SDS011;36346;48.280;14.292;2022-07-05T08:54:40;5.02;;;5.02;;
50417;SDS011;36346;48.280;14.292;2022-07-05T08:57:09;5.69;;;5.69;;
50417;SDS011;36346;48.280;14.292;2022-07-05T08:59:41;5.52;;;5.52;;
50417;SDS011;36346;48.280;14.292;2022-07-05T09:02:10;4.76;;;4.76;;
50417;SDS011;36346;48.280;14.292;2022-07-05T09:04:44;4.76;;;4.76;;
50417;SDS011;36346;48.280;14.292;2022-07-05T09:07:15;4.77;;;4.77;;
50417;SDS011;36346;48.280;14.292;2022-07-05T09:09:46;4.67;;;4.67;;
50417;SDS011;36346;48.280;14.292;2022-07-05T09:12:16;4.67;;;4.67;;
50417;SDS011;36346;48.280;14.292;2022-07-05T09:14:49;4.60;;;4.60;;
50417;SDS011;36346;48.280;14.292;2022-07-05T09:17:18;4.15;;;4.15;;
50417;SDS011;36346;48.280;14.292;2022-07-05T09:20:06;4.01;;;4.01;;
50417;SDS011;36346;48.280;14.292;2022-07-05T09:22:42;3.69;;;3.69;;
50417;SDS011;36346;48.280;14.292;2022-07-05T09:27:47;3.96;;;3.96;;
50417;SDS011;36346;48.280;14.292;2022-07-05T09:30:34;3.59;;;3.59;;
50417;SDS011;36346;48.280;14.292;2022-07-05T09:33:11;3.82;;;3.82;;
50417;SDS011;36346;48.280;14.292;2022-07-05T09:35:43;3.61;;;3.61;;
50417;SDS011;36346;48.280;14.292;2022-07-05T09:38:27;3.80;;;3.80;;
50417;SDS011;36346;48.280;14.292;2022-07-05T09:40:57;3.73;;;3.73;;
50417;SDS011;36346;48.280;14.292;2022-07-05T09:43:27;3.91;;;3.91;;
50417;SDS011;36346;48.280;14.292;2022-07-05T09:46:00;3.82;;;3.82;;
50417;SDS011;36346;48.280;14.292;2022-07-05T09:48:30;3.91;;;3.91;;
50417;SDS011;36346;48.280;14.292;2022-07-05T09:51:09;3.74;;;3.74;;
50417;SDS011;36346;48.280;14.292;2022-07-05T09:53:59;3.77;;;3.77;;
50417;SDS011;36346;48.280;14.292;2022-07-05T09:56:44;3.69;;;3.69;;
50417;SDS011;36346;48.280;14.292;2022-07-05T09:59:19;3.43;;;3.43;;
50417;SDS011;36346;48.280;14.292;2022-07-05T10:01:50;3.46;;;3.46;;
50417;SDS011;36346;48.280;14.292;2022-07-05T10:04:19;3.60;;;3.60;;
50417;SDS011;36346;48.280;14.292;2022-07-05T10:06:48;3.84;;;3.84;;
50417;SDS011;36346;48.280;14.292;2022-07-05T10:09:16;3.77;;;3.77;;
50417;SDS011;36346;48.280;14.292;2022-07-05T10:11:46;3.85;;;3.85;;
50417;SDS011;36346;48.280;14.292;2022-07-05T10:14:16;3.86;;;3.86;;
50417;SDS011;36346;48.280;14.292;2022-07-05T10:16:47;3.82;;;3.82;;
50417;SDS011;36346;48.280;14.292;2022-07-05T10:19:24;3.88;;;3.88;;
50417;SDS011;36346;48.280;14.292;2022-07-05T10:21:59;3.85;;;3.85;;
50417;SDS011;36346;48.280;14.292;2022-07-05T10:24:46;3.75;;;3.75;;
50417;SDS011;36346;48.280;14.292;2022-07-05T10:27:17;4.08;;;4.08;;
50417;SDS011;36346;48.280;14.292;2022-07-05T10:29:48;4.05;;;4.05;;
50417;SDS011;36346;48.280;14.292;2022-07-05T10:32:18;3.92;;;3.92;;
50417;SDS011;36346;48.280;14.292;2022-07-05T10:34:46;3.81;;;3.81;;
50417;SDS011;36346;48.280;14.292;2022-07-05T10:37:25;4.07;;;4.07;;
50417;SDS011;36346;48.280;14.292;2022-07-05T10:39:57;4.03;;;4.03;;
50417;SDS011;36346;48.280;14.292;2022-07-05T10:42:28;3.80;;;3.80;;
50417;SDS011;36346;48.280;14.292;2022-07-05T10:45:24;3.89;;;3.89;;
50417;SDS011;36346;48.280;14.292;2022-07-05T10:50:43;3.83;;;3.83;;
50417;SDS011;36346;48.280;14.292;2022-07-05T10:53:27;4.00;;;4.00;;
50417;SDS011;36346;48.280;14.292;2022-07-05T10:58:46;3.82;;;3.82;;
50417;SDS011;36346;48.280;14.292;2022-07-05T11:03:47;3.83;;;3.83;;
50417;SDS011;36346;48.280;14.292;2022-07-05T11:06:44;3.74;;;3.74;;
50417;SDS011;36346;48.280;14.292;2022-07-05T11:09:17;4.11;;;4.11;;
50417;SDS011;36346;48.280;14.292;2022-07-05T11:14:44;4.49;;;4.49;;
50417;SDS011;36346;48.280;14.292;2022-07-05T11:17:17;3.87;;;3.87;;
50417;SDS011;36346;48.280;14.292;2022-07-05T11:20:11;4.25;;;4.25;;
50417;SDS011;36346;48.280;14.292;2022-07-05T11:25:30;4.09;;;4.09;;
50417;SDS011;36346;48.280;14.292;2022-07-05T11:28:07;3.87;;;3.87;;
50417;SDS011;36346;48.280;14.292;2022-07-05T11:30:46;3.95;;;3.95;;
50417;SDS011;36346;48.280;14.292;2022-07-05T11:33:30;3.99;;;3.99;;
50417;SDS011;36346;48.280;14.292;2022-07-05T11:41:46;4.34;;;4.34;;
50417;SDS011;36346;48.280;14.292;2022-07-05T11:44:15;4.21;;;4.21;;
50417;SDS011;36346;48.280;14.292;2022-07-05T11:46:45;4.17;;;4.17;;
50417;SDS011;36346;48.280;14.292;2022-07-05T11:49:19;4.15;;;4.15;;
50417;SDS011;36346;48.280;14.292;2022-07-05T11:54:25;4.13;;;4.13;;
50417;SDS011;36346;48.280;14.292;2022-07-05T11:56:54;3.98;;;3.98;;
50417;SDS011;36346;48.280;14.292;2022-07-05T11:59:24;4.06;;;4.06;;
50417;SDS011;36346;48.280;14.292;2022-07-05T12:01:53;4.20;;;4.20;;
50417;SDS011;36346;48.280;14.292;2022-07-05T12:04:24;3.93;;;3.93;;
50417;SDS011;36346;48.280;14.292;2022-07-05T12:06:57;4.65;;;4.65;;
50417;SDS011;36346;48.280;14.292;2022-07-05T12:09:27;4.21;;;4.21;;
50417;SDS011;36346;48.280;14.292;2022-07-05T12:12:20;4.34;;;4.34;;
50417;SDS011;36346;48.280;14.292;2022-07-05T12:15:12;3.63;;;3.63;;
50417;SDS011;36346;48.280;14.292;2022-07-05T12:17:46;3.87;;;3.87;;
50417;SDS011;36346;48.280;14.292;2022-07-05T12:20:23;4.05;;;4.05;;
50417;SDS011;36346;48.280;14.292;2022-07-05T12:22:52;4.24;;;4.24;;
50417;SDS011;36346;48.280;14.292;2022-07-05T12:25:21;4.26;;;4.26;;
50417;SDS011;36346;48.280;14.292;2022-07-05T12:27:51;4.40;;;4.40;;
50417;SDS011;36346;48.280;14.292;2022-07-05T12:30:21;4.26;;;4.26;;
50417;SDS011;36346;48.280;14.292;2022-07-05T12:35:35;4.27;;;4.27;;
50417;SDS011;36346;48.280;14.292;2022-07-05T12:38:15;9.35;;;9.35;;
50417;SDS011;36346;48.280;14.292;2022-07-05T12:40:48;7.84;;;7.84;;
50417;SDS011;36346;48.280;14.292;2022-07-05T12:43:26;4.64;;;4.64;;
50417;SDS011;36346;48.280;14.292;2022-07-05T12:46:01;6.57;;;6.57;;
50417;SDS011;36346;48.280;14.292;2022-07-05T12:48:37;5.87;;;5.87;;
50417;SDS011;36346;48.280;14.292;2022-07-05T12:51:08;5.58;;;5.58;;
50417;SDS011;36346;48.280;14.292;2022-07-05T12:53:45;5.47;;;5.47;;
50417;SDS011;36346;48.280;14.292;2022-07-05T12:56:32;5.27;;;5.27;;
50417;SDS011;36346;48.280;14.292;2022-07-05T12:59:39;5.12;;;5.12;;
50417;SDS011;36346;48.280;14.292;2022-07-05T13:05:22;5.30;;;5.30;;
50417;SDS011;36346;48.280;14.292;2022-07-05T13:07:52;5.36;;;5.36;;
50417;SDS011;36346;48.280;14.292;2022-07-05T13:10:22;4.89;;;4.89;;
50417;SDS011;36346;48.280;14.292;2022-07-05T13:12:52;4.97;;;4.97;;
50417;SDS011;36346;48.280;14.292;2022-07-05T13:15:20;4.51;;;4.51;;
50417;SDS011;36346;48.280;14.292;2022-07-05T13:17:49;4.71;;;4.71;;
50417;SDS011;36346;48.280;14.292;2022-07-05T13:20:18;5.09;;;5.09;;
50417;SDS011;36346;48.280;14.292;2022-07-05T13:22:49;7.66;;;7.66;;
50417;SDS011;36346;48.280;14.292;2022-07-05T13:25:17;6.48;;;6.48;;
50417;SDS011;36346;48.280;14.292;2022-07-05T13:27:46;5.10;;;5.10;;
50417;SDS011;36346;48.280;14.292;2022-07-05T13:30:14;6.18;;;6.18;;
50417;SDS011;36346;48.280;14.292;2022-07-05T13:32:42;6.76;;;6.76;;
50417;SDS011;36346;48.280;14.292;2022-07-05T13:35:10;5.42;;;5.42;;
50417;SDS011;36346;48.280;14.292;2022-07-05T13:37:38;6.84;;;6.84;;
50417;SDS011;36346;48.280;14.292;2022-07-05T13:40:07;6.38;;;6.38;;
50417;SDS011;36346;48.280;14.292;2022-07-05T13:42:36;6.93;;;6.93;;
50417;SDS011;36346;48.280;14.292;2022-07-05T13:45:04;5.14;;;5.14;;
50417;SDS011;36346;48.280;14.292;2022-07-05T13:47:33;5.51;;;5.51;;
50417;SDS011;36346;48.280;14.292;2022-07-05T13:50:01;5.55;;;5.55;;
50417;SDS011;36346;48.280;14.292;2022-07-05T13:52:49;6.84;;;6.84;;
50417;SDS011;36346;48.280;14.292;2022-07-05T13:55:18;5.59;;;5.59;;
50417;SDS011;36346;48.280;14.292;2022-07-05T13:57:46;5.85;;;5.85;;
50417;SDS011;36346;48.280;14.292;2022-07-05T14:00:15;5.90;;;5.90;;
50417;SDS011;36346;48.280;14.292;2022-07-05T14:02:43;5.61;;;5.61;;
50417;SDS011;36346;48.280;14.292;2022-07-05T14:05:12;5.03;;;5.03;;
50417;SDS011;36346;48.280;14.292;2022-07-05T14:07:40;5.01;;;5.01;;
50417;SDS011;36346;48.280;14.292;2022-07-05T14:10:08;5.28;;;5.28;;
50417;SDS011;36346;48.280;14.292;2022-07-05T14:12:36;5.28;;;5.28;;
50417;SDS011;36346;48.280;14.292;2022-07-05T14:15:05;5.23;;;5.23;;
50417;SDS011;36346;48.280;14.292;2022-07-05T14:17:33;5.53;;;5.53;;
50417;SDS011;36346;48.280;14.292;2022-07-05T14:20:03;5.00;;;5.00;;
50417;SDS011;36346;48.280;14.292;2022-07-05T14:22:32;5.95;;;5.95;;
50417;SDS011;36346;48.280;14.292;2022-07-05T14:25:00;5.11;;;5.11;;
50417;SDS011;36346;48.280;14.292;2022-07-05T14:27:29;6.41;;;6.41;;
50417;SDS011;36346;48.280;14.292;2022-07-05T14:29:57;7.73;;;7.73;;
50417;SDS011;36346;48.280;14.292;2022-07-05T14:32:25;8.77;;;8.77;;
50417;SDS011;36346;48.280;14.292;2022-07-05T14:34:53;9.15;;;9.15;;
50417;SDS011;36346;48.280;14.292;2022-07-05T14:37:21;3.95;;;3.95;;
50417;SDS011;36346;48.280;14.292;2022-07-05T14:39:50;4.47;;;4.47;;
50417;SDS011;36346;48.280;14.292;2022-07-05T14:42:18;4.48;;;4.48;;
50417;SDS011;36346;48.280;14.292;2022-07-05T14:44:46;7.63;;;7.63;;
50417;SDS011;36346;48.280;14.292;2022-07-05T14:47:14;4.39;;;4.39;;
50417;SDS011;36346;48.280;14.292;2022-07-05T14:49:42;6.60;;;6.60;;
50417;SDS011;36346;48.280;14.292;2022-07-05T14:52:10;6.02;;;6.02;;
50417;SDS011;36346;48.280;14.292;2022-07-05T14:54:39;7.58;;;7.58;;
50417;SDS011;36346;48.280;14.292;2022-07-05T14:57:07;8.73;;;8.73;;
50417;SDS011;36346;48.280;14.292;2022-07-05T14:59:35;6.97;;;6.97;;
50417;SDS011;36346;48.280;14.292;2022-07-05T15:02:03;8.81;;;8.81;;
50417;SDS011;36346;48.280;14.292;2022-07-05T15:04:32;5.18;;;5.18;;
50417;SDS011;36346;48.280;14.292;2022-07-05T15:07:01;5.44;;;5.44;;
50417;SDS011;36346;48.280;14.292;2022-07-05T15:09:30;5.21;;;5.21;;
50417;SDS011;36346;48.280;14.292;2022-07-05T15:11:58;5.32;;;5.32;;
50417;SDS011;36346;48.280;14.292;2022-07-05T15:14:26;6.86;;;6.86;;
50417;SDS011;36346;48.280;14.292;2022-07-05T15:16:57;5.44;;;5.44;;
50417;SDS011;36346;48.280;14.292;2022-07-05T15:19:25;5.38;;;5.38;;
50417;SDS011;36346;48.280;14.292;2022-07-05T15:21:53;4.76;;;4.76;;
50417;SDS011;36346;48.280;14.292;2022-07-05T15:24:22;4.62;;;4.62;;
50417;SDS011;36346;48.280;14.292;2022-07-05T15:26:50;7.01;;;7.01;;